Aérodrome :
LOGIN :

S'inscrire | Disclaimer

   EN    FR    IT 

 










Légende :    VFR   VFR Marginal   IFR   IFR Intensif   IFR Très Intensif
Visi : 
Plafond : 
>= 8 km
>= 3000ft
5 à 8 km
1000 à 3000 ft
1500m à 5 km
500 à 1000 ft
800 à 1500m
200 à 500 ft
< 800m
< 200 ft
Symboles :   Orages  Brouillard  Fortes neiges  Fortes précipitations  Vent > 20 kt
SIGMETs :   Divers  Orages  Givrage  Turbulence  Onde Orograph.  Cendres Volcan.






- Altitude de l'aérodrome : 423 ft
- Code IATA : PIS


LFBI - Poitiers

DERNIER METAR :
  • 210000Z AUTO 30003KT CAVOK 05/04 Q1030 NOSIG

METARs EXPIRÉS :
  • 202330Z AUTO 31004KT CAVOK 05/05 Q1030 NOSIG
  • 202300Z AUTO 31003KT CAVOK 06/05 Q1029 NOSIG
  • 202230Z AUTO 30003KT CAVOK 06/05 Q1029 NOSIG
  • 202200Z AUTO 31004KT 9999 BKN045 07/05 Q1028 NOSIG

TAF TAF LFBI
Valide du 21 à 00h jusqu'au 22 à 00h UTC


202300Z 2100/2124 33005KT 9999 BKN030
PROB40 2104/2109 VRB02KT 0700 FG VV///
BECMG 2111/2113 25005KT CAVOK



MET'MAP, la Météo Aéronautique d'un coup d'oeil ! - Copyright ORBIFLY Décembre 2007 - Disclaimer

ORBIFLY MET'MAP TEAM :

Programmation & Développement : Alexandra Zaïnal
Sur une idée originale de : Baudouin d'Aumeries
Assistance à la programmation : Marc-Olivier Méhu
Soutien technique & logistique : Manuel Goepfert

Contact : metmap@orbifly.com




SOURCES & CREDITS :

   NOAA